Time;durP1;ratioP1;P1;durP2;ratioP2;P2;SDS_P1;SDS_P2;PMS_P1;PMS_P2;Temp;Humidity;BMP_temperature;BMP_pressure;BME280_temperature;BME280_humidity;BME280_pressure;Samples;Min_cycle;Max_cycle;Signal;HPM_P1;HPM_P2
2023/09/01 00:01:03;;;;;;;7.43;6.60;;;21.70;79.20;;;;;;5006986;28;20049;-77
2023/09/01 00:03:55;;;;;;;9.25;6.85;;;21.70;79.40;;;;;;5007420;28;20041;-77
2023/09/01 00:06:20;;;;;;;8.32;6.85;;;21.80;79.50;;;;;;5007930;28;20096;-78
2023/09/01 00:08:46;;;;;;;10.32;6.95;;;21.70;79.60;;;;;;5007900;28;20030;-77
2023/09/01 00:11:13;;;;;;;11.45;6.90;;;21.70;79.60;;;;;;5007650;28;20100;-77
2023/09/01 00:13:39;;;;;;;8.52;6.72;;;21.70;79.70;;;;;;5008892;28;20057;-77
2023/09/01 00:16:05;;;;;;;9.48;6.95;;;21.70;79.80;;;;;;5008363;28;20076;-77
2023/09/01 00:18:32;;;;;;;7.85;7.05;;;21.70;79.80;;;;;;5007747;28;20034;-77
2023/09/01 00:21:00;;;;;;;9.05;7.05;;;21.60;79.80;;;;;;5008342;28;20037;-78
2023/09/01 00:23:27;;;;;;;8.85;7.15;;;21.60;80.00;;;;;;5008210;28;20076;-78
2023/09/01 00:25:55;;;;;;;8.63;6.53;;;21.60;80.00;;;;;;5008095;28;20555;-77
2023/09/01 00:28:21;;;;;;;9.05;6.60;;;21.60;80.00;;;;;;5006262;28;20734;-77
2023/09/01 00:30:55;;;;;;;7.28;6.38;;;21.60;80.00;;;;;;5008275;28;20037;-77
2023/09/01 00:33:27;;;;;;;9.40;6.77;;;21.60;80.00;;;;;;5007211;28;20527;-76
2023/09/01 00:35:55;;;;;;;9.02;7.10;;;21.60;80.20;;;;;;5006295;28;20034;-76
2023/09/01 00:38:22;;;;;;;10.38;6.55;;;21.50;80.20;;;;;;5006477;28;20976;-77
2023/09/01 00:40:48;;;;;;;7.35;6.55;;;21.50;80.20;;;;;;5007111;28;20045;-76
2023/09/01 00:43:15;;;;;;;12.13;7.15;;;21.50;80.30;;;;;;4990243;28;20034;-77
2023/09/01 00:45:42;;;;;;;8.85;7.35;;;21.50;80.30;;;;;;5006277;28;20066;-76
2023/09/01 00:48:10;;;;;;;7.70;6.68;;;21.50;80.80;;;;;;5006484;28;20033;-76
2023/09/01 00:50:36;;;;;;;9.05;6.35;;;21.50;81.20;;;;;;5007625;28;20050;-76
2023/09/01 00:53:05;;;;;;;8.93;7.05;;;21.50;81.40;;;;;;5007042;28;20030;-76
2023/09/01 00:55:35;;;;;;;9.43;6.63;;;21.40;81.40;;;;;;5006922;28;20040;-76
2023/09/01 00:58:02;;;;;;;8.35;6.50;;;21.40;81.50;;;;;;5005552;28;20088;-76
2023/09/01 01:00:34;;;;;;;9.38;6.22;;;21.40;81.50;;;;;;5007465;28;20179;-76
2023/09/01 01:03:05;;;;;;;9.40;7.40;;;21.40;81.40;;;;;;5005789;28;20036;-75
2023/09/01 01:06:09;;;;;;;9.05;6.70;;;21.40;81.50;;;;;;5006235;28;20473;-75
2023/09/01 01:08:40;;;;;;;11.70;7.43;;;21.40;81.60;;;;;;5021857;28;20044;-75
2023/09/01 01:11:22;;;;;;;8.13;6.63;;;21.40;81.70;;;;;;5005441;28;20370;-75
2023/09/01 01:13:55;;;;;;;7.85;6.43;;;21.40;81.70;;;;;;5007088;28;20040;-75
2023/09/01 01:16:23;;;;;;;8.40;6.97;;;21.40;81.70;;;;;;5005858;28;20041;-76
2023/09/01 01:18:52;;;;;;;7.40;6.53;;;21.30;81.70;;;;;;5006872;28;20037;-75
2023/09/01 01:21:26;;;;;;;7.80;6.63;;;21.30;81.80;;;;;;5017848;28;20037;-75
2023/09/01 01:23:53;;;;;;;8.57;6.93;;;21.30;81.90;;;;;;5006363;28;20864;-75
2023/09/01 01:26:21;;;;;;;9.25;6.63;;;21.30;81.70;;;;;;5005653;28;20630;-75
2023/09/01 01:28:47;;;;;;;7.95;6.55;;;21.30;81.90;;;;;;5006461;28;20030;-75
2023/09/01 01:31:13;;;;;;;8.90;7.22;;;21.30;81.90;;;;;;5001662;28;20112;-76
2023/09/01 01:33:52;;;;;;;8.23;6.60;;;21.30;81.90;;;;;;5006015;28;20034;-76
2023/09/01 01:36:37;;;;;;;9.50;7.03;;;21.30;81.90;;;;;;5002837;28;20037;-76
2023/09/01 01:39:09;;;;;;;7.95;6.82;;;21.30;81.90;;;;;;4984807;28;20044;-77
2023/09/01 01:41:54;;;;;;;9.27;7.10;;;21.20;82.00;;;;;;5006765;28;20108;-77
2023/09/01 01:44:24;;;;;;;9.55;7.22;;;21.20;82.10;;;;;;5037873;28;20517;-77
2023/09/01 01:46:50;;;;;;;8.95;6.40;;;21.20;82.10;;;;;;5022178;28;20515;-77
2023/09/01 01:49:17;;;;;;;11.18;7.00;;;21.20;82.00;;;;;;5005559;28;20046;-78
2023/09/01 01:51:43;;;;;;;7.93;6.82;;;21.20;82.00;;;;;;5004662;28;20034;-77
2023/09/01 01:54:09;;;;;;;11.50;7.22;;;21.20;82.10;;;;;;5005618;28;20038;-77
2023/09/01 01:56:35;;;;;;;7.63;6.82;;;21.20;82.10;;;;;;5006206;28;20099;-78
2023/09/01 01:59:04;;;;;;;10.07;7.60;;;21.20;82.70;;;;;;4988668;28;20041;-77
2023/09/01 02:01:32;;;;;;;8.68;7.07;;;21.20;82.20;;;;;;5001298;28;20030;-78
2023/09/01 02:03:58;;;;;;;10.30;6.72;;;21.10;82.10;;;;;;5005150;28;20181;-77
2023/09/01 02:06:24;;;;;;;9.20;7.20;;;21.10;82.20;;;;;;5005727;28;20128;-77
2023/09/01 02:08:50;;;;;;;9.95;7.43;;;21.10;82.20;;;;;;5005466;28;20033;-76
2023/09/01 02:11:16;;;;;;;9.90;7.15;;;21.10;82.30;;;;;;5004732;28;20042;-76
2023/09/01 02:13:43;;;;;;;10.68;7.13;;;21.10;82.30;;;;;;5005467;28;20057;-76
2023/09/01 02:16:09;;;;;;;7.85;7.03;;;21.10;82.70;;;;;;5000380;28;20042;-76
2023/09/01 02:18:35;;;;;;;10.32;7.53;;;21.10;82.20;;;;;;5004843;28;20412;-76
2023/09/01 02:21:01;;;;;;;12.25;7.25;;;21.10;82.30;;;;;;5004858;28;20496;-77
2023/09/01 02:23:27;;;;;;;9.88;7.20;;;21.10;82.50;;;;;;5005171;28;20026;-76
2023/09/01 02:25:53;;;;;;;10.70;6.80;;;21.10;82.40;;;;;;5005771;28;20038;-76
2023/09/01 02:28:19;;;;;;;10.52;7.82;;;21.10;82.50;;;;;;4987690;28;20042;-77
2023/09/01 02:30:45;;;;;;;8.02;6.78;;;21.00;82.30;;;;;;4987829;28;20140;-76
2023/09/01 02:33:11;;;;;;;12.15;7.18;;;21.00;82.30;;;;;;5004725;28;20042;-74
2023/09/01 02:35:44;;;;;;;11.27;7.43;;;21.00;82.50;;;;;;4988392;28;20030;-76
2023/09/01 02:38:10;;;;;;;9.63;7.63;;;21.00;82.30;;;;;;5004148;28;20500;-76
2023/09/01 02:40:37;;;;;;;12.30;7.63;;;21.00;82.30;;;;;;5006018;28;20045;-77
2023/09/01 02:43:03;;;;;;;11.27;7.72;;;21.00;82.30;;;;;;5005201;28;20157;-77
2023/09/01 02:45:30;;;;;;;11.02;7.60;;;21.00;82.40;;;;;;5000070;28;20092;-77
2023/09/01 02:47:57;;;;;;;8.85;7.05;;;21.00;82.40;;;;;;4987624;28;21427;-77
2023/09/01 02:50:23;;;;;;;11.02;7.65;;;21.00;82.40;;;;;;5004355;28;20057;-76
2023/09/01 02:52:48;;;;;;;11.18;7.90;;;21.00;82.40;;;;;;5006023;28;20517;-77
2023/09/01 02:55:17;;;;;;;10.00;7.50;;;20.90;82.30;;;;;;5006520;28;20087;-77
2023/09/01 02:57:44;;;;;;;11.95;7.75;;;20.90;82.30;;;;;;5017225;28;20038;-77
2023/09/01 03:00:21;;;;;;;12.57;8.30;;;20.90;82.20;;;;;;5005081;28;20033;-76
2023/09/01 03:02:48;;;;;;;12.13;7.90;;;20.90;82.30;;;;;;5004782;28;20034;-77
2023/09/01 03:05:14;;;;;;;14.65;8.63;;;20.90;82.40;;;;;;5006774;28;20413;-76
2023/09/01 03:07:41;;;;;;;8.45;7.47;;;20.90;82.30;;;;;;5013437;28;20064;-76
2023/09/01 03:10:08;;;;;;;9.60;7.82;;;20.90;82.30;;;;;;5006555;28;20030;-76
2023/09/01 03:12:37;;;;;;;10.15;7.78;;;20.90;82.60;;;;;;4996433;28;20034;-76
2023/09/01 03:15:04;;;;;;;12.27;7.75;;;20.90;82.50;;;;;;5009339;28;20049;-76
2023/09/01 03:17:30;;;;;;;9.95;7.35;;;20.90;82.40;;;;;;5008986;28;20058;-76
2023/09/01 03:19:56;;;;;;;11.43;7.80;;;20.80;82.40;;;;;;5005952;28;20038;-76
2023/09/01 03:22:23;;;;;;;12.23;8.10;;;20.80;82.50;;;;;;5009245;28;20037;-77
2023/09/01 03:24:52;;;;;;;9.63;7.82;;;20.80;82.50;;;;;;5005857;28;20034;-76
2023/09/01 03:27:18;;;;;;;10.95;7.55;;;20.80;82.40;;;;;;5004482;28;20030;-76
2023/09/01 03:29:43;;;;;;;8.15;7.35;;;20.80;82.50;;;;;;5008544;28;20034;-76
2023/09/01 03:32:10;;;;;;;10.82;7.57;;;20.80;82.50;;;;;;4991466;28;20449;-75
2023/09/01 03:34:37;;;;;;;9.85;7.38;;;20.80;82.50;;;;;;5004271;28;20049;-76
2023/09/01 03:37:03;;;;;;;10.32;7.30;;;20.80;82.50;;;;;;5003266;28;20061;-76
2023/09/01 03:39:30;;;;;;;10.18;7.75;;;20.80;82.50;;;;;;5007881;28;20038;-77
2023/09/01 03:41:56;;;;;;;12.55;7.53;;;20.80;82.60;;;;;;5004634;28;20053;-76
2023/09/01 03:44:22;;;;;;;9.73;7.43;;;20.80;82.50;;;;;;5008661;28;20136;-77
2023/09/01 03:46:48;;;;;;;10.13;7.82;;;20.90;82.50;;;;;;5007577;28;20878;-77
2023/09/01 03:49:16;;;;;;;9.93;7.40;;;20.80;82.30;;;;;;5007599;28;20038;-77
2023/09/01 03:51:42;;;;;;;11.88;8.20;;;20.80;82.40;;;;;;5007764;28;20030;-77
2023/09/01 03:54:08;;;;;;;12.57;7.20;;;20.80;82.60;;;;;;4991061;28;20038;-77
2023/09/01 03:56:34;;;;;;;9.90;6.88;;;20.80;82.80;;;;;;4991241;28;20061;-77
2023/09/01 03:59:00;;;;;;;10.63;7.60;;;20.80;82.80;;;;;;5008847;28;20041;-79
2023/09/01 04:01:26;;;;;;;11.88;7.55;;;20.90;82.90;;;;;;5008098;28;20033;-79
2023/09/01 04:03:52;;;;;;;11.23;7.32;;;20.80;83.30;;;;;;5002432;28;20038;-77
2023/09/01 04:06:18;;;;;;;11.48;7.25;;;20.90;83.30;;;;;;5005324;28;20120;-77
2023/09/01 04:08:44;;;;;;;13.88;7.80;;;20.90;83.30;;;;;;4990446;28;20121;-76
2023/09/01 04:11:10;;;;;;;10.07;6.90;;;20.90;83.30;;;;;;4990328;28;20035;-77
2023/09/01 04:13:37;;;;;;;11.00;7.55;;;20.90;83.10;;;;;;5007100;28;20018;-76
2023/09/01 04:16:03;;;;;;;9.52;7.53;;;20.90;83.30;;;;;;5006738;28;20065;-77
2023/09/01 04:18:32;;;;;;;11.82;7.97;;;20.90;82.90;;;;;;5007079;28;20375;-77
2023/09/01 04:20:58;;;;;;;11.80;7.95;;;21.00;83.00;;;;;;4990921;28;20072;-76
2023/09/01 04:23:24;;;;;;;10.23;7.20;;;21.00;83.00;;;;;;5007866;28;20408;-79
2023/09/01 04:25:51;;;;;;;10.77;7.45;;;21.00;82.80;;;;;;4996925;28;21478;-76
2023/09/01 04:28:20;;;;;;;11.23;7.43;;;21.00;82.80;;;;;;5003445;28;20061;-77
2023/09/01 04:30:48;;;;;;;11.80;7.55;;;21.10;82.70;;;;;;5010856;28;20034;-77
2023/09/01 04:33:15;;;;;;;12.95;7.65;;;21.00;82.60;;;;;;5010602;28;20058;-78
2023/09/01 04:35:42;;;;;;;14.75;7.78;;;21.10;82.70;;;;;;4994561;28;20042;-79
2023/09/01 04:38:08;;;;;;;12.25;7.53;;;21.10;82.70;;;;;;5010523;28;20485;-78
2023/09/01 04:40:34;;;;;;;11.45;8.15;;;21.20;82.70;;;;;;5011185;28;20080;-79
2023/09/01 04:43:00;;;;;;;11.93;7.70;;;21.20;82.70;;;;;;5011626;28;20041;-78
2023/09/01 04:45:26;;;;;;;13.18;8.18;;;21.20;83.10;;;;;;4995742;28;20073;-78
2023/09/01 04:47:52;;;;;;;16.30;7.68;;;21.30;83.50;;;;;;4982333;28;20125;-75
2023/09/01 04:50:19;;;;;;;9.23;6.75;;;21.30;83.40;;;;;;5011801;28;20116;-75
2023/09/01 04:52:44;;;;;;;13.55;6.72;;;21.40;83.40;;;;;;5009725;28;20053;-75
2023/09/01 04:55:11;;;;;;;10.93;6.75;;;21.60;83.10;;;;;;5009641;28;20026;-76
2023/09/01 04:57:37;;;;;;;10.82;6.88;;;21.70;82.90;;;;;;5009129;28;20520;-75
2023/09/01 05:00:15;;;;;;;12.00;6.82;;;21.90;83.00;;;;;;5011330;28;20037;-77
2023/09/01 05:02:46;;;;;;;11.65;7.53;;;22.10;82.50;;;;;;4994202;28;20034;-77
2023/09/01 05:05:13;;;;;;;15.35;7.15;;;22.40;81.70;;;;;;5007484;28;20058;-78
2023/09/01 05:07:39;;;;;;;12.52;6.88;;;22.70;81.00;;;;;;5001789;28;20041;-77
2023/09/01 05:10:08;;;;;;;13.30;7.93;;;22.80;80.40;;;;;;4989038;28;20424;-77
2023/09/01 05:12:34;;;;;;;10.48;7.68;;;22.80;80.60;;;;;;5004751;28;20121;-78
2023/09/01 05:15:00;;;;;;;13.05;7.60;;;22.90;81.10;;;;;;4988727;28;20038;-78
2023/09/01 05:17:26;;;;;;;11.55;7.70;;;22.90;80.90;;;;;;4989005;28;20030;-78
2023/09/01 05:19:53;;;;;;;9.63;6.47;;;23.00;80.90;;;;;;5004857;28;20634;-77
2023/09/01 05:22:19;;;;;;;10.35;7.18;;;23.10;80.30;;;;;;5000611;28;20034;-78
2023/09/01 05:24:47;;;;;;;11.95;7.43;;;23.20;79.90;;;;;;5005598;28;20030;-78
2023/09/01 05:27:13;;;;;;;13.48;6.90;;;23.30;79.30;;;;;;5020747;28;20136;-78
2023/09/01 05:29:39;;;;;;;9.10;6.07;;;23.40;79.20;;;;;;4988087;28;20516;-79
2023/09/01 05:32:05;;;;;;;13.68;6.80;;;23.50;79.20;;;;;;5005105;28;20208;-76
2023/09/01 05:34:31;;;;;;;7.18;5.70;;;23.50;79.00;;;;;;4988879;28;20516;-76
2023/09/01 05:36:57;;;;;;;10.15;6.40;;;23.60;79.10;;;;;;4988887;28;20128;-78
2023/09/01 05:39:24;;;;;;;9.25;6.10;;;23.70;79.10;;;;;;5003985;28;20529;-78
2023/09/01 05:41:50;;;;;;;9.85;6.28;;;23.80;79.10;;;;;;5005195;28;20148;-78
2023/09/01 05:44:17;;;;;;;7.75;6.03;;;23.90;79.00;;;;;;5004375;28;20057;-78
2023/09/01 05:46:44;;;;;;;9.43;5.57;;;24.00;78.70;;;;;;5004859;28;20521;-78
2023/09/01 05:49:10;;;;;;;9.55;5.90;;;24.00;78.40;;;;;;5005162;28;20044;-77
2023/09/01 05:51:35;;;;;;;7.65;5.47;;;24.10;78.20;;;;;;4989031;28;20041;-78
2023/09/01 05:54:02;;;;;;;7.68;5.22;;;24.20;77.80;;;;;;5003939;28;20129;-78
2023/09/01 05:56:28;;;;;;;9.02;5.88;;;24.40;77.50;;;;;;5006720;28;20444;-79
2023/09/01 05:58:54;;;;;;;9.93;6.18;;;24.40;77.20;;;;;;5006425;28;20120;-77
2023/09/01 06:01:20;;;;;;;8.70;6.18;;;24.60;76.90;;;;;;4982659;28;20034;-79
2023/09/01 06:03:46;;;;;;;8.40;6.15;;;24.60;76.30;;;;;;5006001;28;20042;-79
2023/09/01 06:06:12;;;;;;;7.53;5.80;;;24.80;76.10;;;;;;5004995;28;20064;-77
2023/09/01 06:08:38;;;;;;;7.60;5.40;;;24.80;75.60;;;;;;5005953;28;20037;-79
2023/09/01 06:11:06;;;;;;;9.48;5.88;;;24.90;75.40;;;;;;5004682;28;20069;-77
2023/09/01 06:13:32;;;;;;;7.57;5.50;;;25.00;75.00;;;;;;5004455;28;20121;-78
2023/09/01 06:15:58;;;;;;;8.18;5.30;;;25.10;74.60;;;;;;5005490;28;20156;-78
2023/09/01 06:18:24;;;;;;;10.73;6.03;;;25.20;74.30;;;;;;5005418;28;20040;-78
2023/09/01 06:20:50;;;;;;;8.75;5.53;;;25.30;73.80;;;;;;5006080;28;20429;-78
2023/09/01 06:23:17;;;;;;;6.53;5.57;;;25.40;73.40;;;;;;5005561;28;20044;-78
2023/09/01 06:25:43;;;;;;;8.02;5.35;;;25.40;73.10;;;;;;5005112;28;20037;-78
2023/09/01 06:28:09;;;;;;;7.15;5.03;;;25.50;72.80;;;;;;5006082;28;20546;-79
2023/09/01 06:30:36;;;;;;;7.32;5.60;;;25.50;72.50;;;;;;5005139;28;20037;-78
2023/09/01 06:33:04;;;;;;;10.82;5.28;;;25.60;72.20;;;;;;5006203;28;20037;-78
2023/09/01 06:35:29;;;;;;;7.13;5.63;;;25.70;72.00;;;;;;4988342;28;20030;-79
2023/09/01 06:37:55;;;;;;;7.63;5.63;;;25.70;71.80;;;;;;5009093;28;20044;-78
2023/09/01 06:40:21;;;;;;;9.10;5.30;;;25.80;71.50;;;;;;5008525;28;20030;-77
2023/09/01 06:42:47;;;;;;;10.15;4.95;;;25.90;71.20;;;;;;5008848;28;20026;-78
2023/09/01 06:45:13;;;;;;;7.63;5.50;;;25.90;70.80;;;;;;5009021;28;21320;-77
2023/09/01 06:47:39;;;;;;;8.43;4.97;;;26.00;70.50;;;;;;5009734;28;20091;-77
2023/09/01 06:50:06;;;;;;;7.82;5.15;;;26.00;70.10;;;;;;5008310;28;20033;-79
2023/09/01 06:52:32;;;;;;;7.53;5.40;;;26.10;69.80;;;;;;5009578;28;20088;-78
2023/09/01 06:54:57;;;;;;;8.82;5.20;;;26.10;69.50;;;;;;5009460;28;20524;-78
2023/09/01 06:57:23;;;;;;;6.70;5.13;;;26.10;69.20;;;;;;5009577;28;20438;-79
2023/09/01 06:59:49;;;;;;;8.32;4.65;;;26.20;69.20;;;;;;5009286;28;20045;-77
2023/09/01 07:02:15;;;;;;;12.95;5.72;;;26.20;69.00;;;;;;5006212;28;20351;-78
2023/09/01 07:04:41;;;;;;;9.55;5.35;;;26.20;66.30;;;;;;5009439;28;20045;-78
2023/09/01 07:07:07;;;;;;;5.97;5.25;;;26.30;64.70;;;;;;5008185;28;20026;-78
2023/09/01 07:09:33;;;;;;;8.02;5.53;;;26.30;65.50;;;;;;5008667;28;20038;-78
2023/09/01 07:11:59;;;;;;;10.00;5.35;;;26.30;65.80;;;;;;5009037;28;20331;-80
2023/09/01 07:14:25;;;;;;;7.72;5.45;;;26.40;66.00;;;;;;5007496;28;20445;-80
2023/09/01 07:16:51;;;;;;;9.52;5.40;;;26.40;66.10;;;;;;4991987;28;20121;-77
2023/09/01 07:19:16;;;;;;;10.98;5.15;;;26.40;66.10;;;;;;5022829;28;20049;-80
2023/09/01 07:21:42;;;;;;;8.43;5.38;;;26.40;66.20;;;;;;5009372;28;20457;-79
2023/09/01 07:24:11;;;;;;;10.40;4.95;;;26.40;66.20;;;;;;5007384;28;20034;-79
2023/09/01 07:26:38;;;;;;;12.13;5.57;;;26.50;66.40;;;;;;5009109;28;20044;-79
2023/09/01 07:29:04;;;;;;;9.95;5.15;;;26.50;66.40;;;;;;5008267;28;20088;-79
2023/09/01 07:31:30;;;;;;;8.27;5.10;;;26.50;66.40;;;;;;5009346;28;20055;-79
2023/09/01 07:33:57;;;;;;;7.97;4.97;;;26.50;66.40;;;;;;5006491;28;20526;-79
2023/09/01 07:36:23;;;;;;;7.53;5.22;;;26.50;66.40;;;;;;5008866;28;20487;-80
2023/09/01 07:38:49;;;;;;;10.23;4.97;;;26.50;66.30;;;;;;5008415;28;20033;-79
2023/09/01 07:41:15;;;;;;;8.38;5.18;;;26.50;67.00;;;;;;5008340;28;20154;-79
2023/09/01 07:43:41;;;;;;;7.72;4.85;;;26.50;66.40;;;;;;5009082;28;20041;-78
2023/09/01 07:46:07;;;;;;;9.68;5.43;;;26.50;66.60;;;;;;5009105;28;20033;-78
2023/09/01 07:48:33;;;;;;;7.88;5.70;;;26.60;66.60;;;;;;5008170;28;20144;-77
2023/09/01 07:50:59;;;;;;;7.68;5.35;;;26.60;66.50;;;;;;5009849;28;20132;-76
2023/09/01 07:53:25;;;;;;;7.03;4.70;;;26.60;66.20;;;;;;5019121;28;20155;-78
2023/09/01 07:55:51;;;;;;;7.00;5.38;;;26.50;65.90;;;;;;5009295;28;20044;-76
2023/09/01 07:58:16;;;;;;;6.60;4.65;;;26.50;65.90;;;;;;5008121;28;20520;-77
2023/09/01 08:00:43;;;;;;;9.20;5.05;;;26.50;66.00;;;;;;5007515;28;20037;-77
2023/09/01 08:03:12;;;;;;;12.32;4.80;;;26.60;66.10;;;;;;5008221;28;20133;-75
2023/09/01 08:05:38;;;;;;;8.30;5.20;;;26.50;66.10;;;;;;5009218;28;20544;-78
2023/09/01 08:08:05;;;;;;;8.10;5.63;;;26.60;66.10;;;;;;5006585;28;20133;-77
2023/09/01 08:10:31;;;;;;;10.68;5.80;;;26.50;66.20;;;;;;5008364;28;21452;-75
2023/09/01 08:12:57;;;;;;;9.55;5.38;;;26.60;66.30;;;;;;5006180;28;20034;-76
2023/09/01 08:15:23;;;;;;;8.45;5.32;;;26.60;66.40;;;;;;5008372;28;20062;-77
2023/09/01 08:17:50;;;;;;;9.10;5.82;;;26.60;66.40;;;;;;5008193;28;20030;-77
2023/09/01 08:20:17;;;;;;;7.15;4.95;;;26.50;66.10;;;;;;5008603;28;20409;-78
2023/09/01 08:22:43;;;;;;;7.10;4.63;;;26.50;66.00;;;;;;5010355;28;20034;-78
2023/09/01 08:25:09;;;;;;;7.97;4.95;;;26.50;66.10;;;;;;5008509;28;20042;-76
2023/09/01 08:27:35;;;;;;;7.63;4.80;;;26.50;66.20;;;;;;5008832;28;20038;-76
2023/09/01 08:30:03;;;;;;;9.55;5.30;;;26.50;66.30;;;;;;5007135;28;20034;-78
2023/09/01 08:32:29;;;;;;;8.57;5.35;;;26.50;66.30;;;;;;5009202;28;20037;-80
2023/09/01 08:34:55;;;;;;;8.48;4.78;;;26.50;66.50;;;;;;5008767;28;20421;-80
2023/09/01 08:37:21;;;;;;;9.98;5.28;;;26.50;66.90;;;;;;5009431;28;20504;-80
2023/09/01 08:39:47;;;;;;;10.32;4.65;;;26.50;67.40;;;;;;4991408;28;20053;-79
2023/09/01 08:42:14;;;;;;;8.70;4.88;;;26.50;67.10;;;;;;5009040;28;20041;-78
2023/09/01 08:44:41;;;;;;;8.55;4.53;;;26.50;67.40;;;;;;4974210;28;20530;-77
2023/09/01 08:47:10;;;;;;;11.02;5.20;;;26.50;67.50;;;;;;5008616;28;20504;-82
2023/09/01 08:49:36;;;;;;;8.77;5.13;;;26.50;67.30;;;;;;4991777;28;20556;-78
2023/09/01 08:52:03;;;;;;;11.23;5.30;;;26.50;67.40;;;;;;5007832;28;20129;-79
2023/09/01 08:54:31;;;;;;;12.38;5.53;;;26.50;67.30;;;;;;5007561;28;20061;-80
2023/09/01 08:56:57;;;;;;;8.00;4.85;;;26.40;66.80;;;;;;5001925;28;20064;-80
2023/09/01 08:59:24;;;;;;;10.52;5.55;;;26.40;66.40;;;;;;5008264;28;20041;-80
2023/09/01 09:01:51;;;;;;;7.03;4.40;;;26.40;66.00;;;;;;5009097;28;20034;-87
2023/09/01 09:04:17;;;;;;;6.82;4.78;;;26.40;65.60;;;;;;5006653;28;20154;-84
2023/09/01 09:06:43;;;;;;;9.68;5.13;;;26.40;65.70;;;;;;5006200;28;20041;-84
2023/09/01 09:09:18;;;;;;;7.47;4.28;;;26.40;65.30;;;;;;5007539;28;20062;-85
2023/09/01 09:12:00;;;;;;;7.00;4.65;;;26.40;64.50;;;;;;5007153;28;20528;-83
2023/09/01 09:14:30;;;;;;;9.88;4.28;;;26.40;64.00;;;;;;4988659;28;20490;-84
2023/09/01 09:16:57;;;;;;;8.50;5.05;;;26.40;64.00;;;;;;5006366;28;20408;-83
2023/09/01 09:19:24;;;;;;;5.43;4.10;;;26.30;63.70;;;;;;5007630;28;20606;-92
2023/09/01 09:22:08;;;;;;;5.97;4.32;;;26.30;63.40;;;;;;5007659;28;20532;-89
2023/09/01 09:24:36;;;;;;;4.55;4.15;;;26.20;63.40;;;;;;5007965;28;20034;-86
2023/09/01 09:27:03;;;;;;;6.70;4.18;;;26.20;63.20;;;;;;5006406;28;20034;-92
2023/09/01 09:29:40;;;;;;;4.97;4.13;;;26.20;63.70;;;;;;5006473;28;20030;-91
2023/09/01 09:32:19;;;;;;;5.93;3.65;;;26.20;62.70;;;;;;5006432;28;20041;-91
2023/09/01 09:35:06;;;;;;;5.03;3.95;;;26.20;62.90;;;;;;5008108;28;20493;-90
2023/09/01 09:37:33;;;;;;;7.70;3.72;;;26.10;63.40;;;;;;5007858;28;20276;-75
2023/09/01 09:40:16;;;;;;;8.00;4.13;;;26.20;63.60;;;;;;5007662;28;20128;-79
2023/09/01 09:42:44;;;;;;;10.13;4.38;;;26.20;63.20;;;;;;5009083;28;20573;-85
2023/09/01 09:45:34;;;;;;;6.65;3.97;;;26.20;63.10;;;;;;5009443;28;20406;-83
2023/09/01 09:48:02;;;;;;;8.65;4.00;;;26.20;64.60;;;;;;5006980;28;20076;-77
2023/09/01 09:50:29;;;;;;;5.53;3.88;;;26.10;65.20;;;;;;5010116;28;20091;-76
2023/09/01 09:53:00;;;;;;;5.97;3.88;;;26.20;64.00;;;;;;5009892;28;20125;-76
2023/09/01 09:55:30;;;;;;;8.35;3.92;;;26.20;64.70;;;;;;5009663;28;20104;-73
2023/09/01 09:58:07;;;;;;;4.20;3.80;;;26.10;63.80;;;;;;5007781;28;20049;-85
2023/09/01 10:00:42;;;;;;;7.38;3.75;;;26.10;64.50;;;;;;4993614;28;20038;-87
2023/09/01 10:03:09;;;;;;;5.57;4.30;;;26.20;62.20;;;;;;4990849;28;20041;-82
2023/09/01 10:05:35;;;;;;;6.25;4.00;;;26.30;62.60;;;;;;5005457;28;20077;-85
2023/09/01 10:08:06;;;;;;;7.10;4.60;;;26.30;63.00;;;;;;4982167;28;20120;-83
2023/09/01 10:10:34;;;;;;;5.57;4.40;;;26.20;63.40;;;;;;5003925;28;20030;-81
2023/09/01 10:13:06;;;;;;;5.25;3.88;;;26.20;64.60;;;;;;5004785;28;20037;-81
2023/09/01 10:15:36;;;;;;;10.43;4.45;;;26.20;64.50;;;;;;5004594;28;21402;-81
2023/09/01 10:18:09;;;;;;;5.35;4.07;;;26.10;64.20;;;;;;5004026;28;20083;-81
2023/09/01 10:20:39;;;;;;;5.43;3.78;;;26.10;63.30;;;;;;5005172;28;20038;-77
2023/09/01 10:23:05;;;;;;;5.65;4.10;;;26.10;62.80;;;;;;5005050;28;20038;-77
2023/09/01 10:25:32;;;;;;;5.93;3.95;;;26.10;62.80;;;;;;5006077;28;20520;-77
2023/09/01 10:28:07;;;;;;;6.45;4.32;;;26.10;63.20;;;;;;5005324;28;20026;-77
2023/09/01 10:30:34;;;;;;;6.18;4.05;;;26.10;61.90;;;;;;5004298;28;20034;-77
2023/09/01 10:33:15;;;;;;;6.80;4.30;;;26.10;62.60;;;;;;5004987;28;20034;-77
2023/09/01 10:35:51;;;;;;;5.07;4.40;;;26.10;62.90;;;;;;5006313;28;20034;-78
2023/09/01 10:38:19;;;;;;;4.85;3.75;;;26.10;62.10;;;;;;5005392;28;20065;-77
2023/09/01 10:40:55;;;;;;;5.57;4.28;;;26.10;61.60;;;;;;5005305;28;20053;-77
2023/09/01 10:43:33;;;;;;;5.90;4.28;;;26.10;63.30;;;;;;5006332;28;20037;-77
2023/09/01 10:46:15;;;;;;;5.82;3.60;;;26.10;62.40;;;;;;5004323;28;20046;-77
2023/09/01 10:49:04;;;;;;;7.13;3.97;;;26.10;63.40;;;;;;5005774;28;20034;-78
2023/09/01 10:51:37;;;;;;;5.25;3.92;;;26.10;61.80;;;;;;5005886;28;20072;-77
2023/09/01 10:54:15;;;;;;;5.80;4.00;;;26.10;62.60;;;;;;5002795;28;20034;-77
2023/09/01 10:56:57;;;;;;;4.78;3.83;;;26.00;63.40;;;;;;5005053;28;20047;-77
2023/09/01 10:59:30;;;;;;;6.90;4.10;;;26.00;63.60;;;;;;5005691;28;20037;-77
2023/09/01 11:01:56;;;;;;;4.38;3.97;;;26.10;61.10;;;;;;5005054;28;20116;-77
2023/09/01 11:04:22;;;;;;;6.60;3.40;;;26.10;62.60;;;;;;5004132;28;20129;-77
2023/09/01 11:07:00;;;;;;;4.78;4.05;;;26.10;62.60;;;;;;5005766;28;20041;-77
2023/09/01 11:09:35;;;;;;;7.78;3.70;;;26.00;62.70;;;;;;4998833;28;20058;-77
2023/09/01 11:12:06;;;;;;;4.88;3.80;;;26.00;62.80;;;;;;5005505;28;20057;-77
2023/09/01 11:14:34;;;;;;;4.35;3.60;;;26.00;62.30;;;;;;5005126;28;20038;-77
2023/09/01 11:17:03;;;;;;;5.75;4.13;;;26.00;63.30;;;;;;5005271;28;20034;-77
2023/09/01 11:19:32;;;;;;;5.82;3.40;;;25.90;63.40;;;;;;5006069;28;20504;-77
2023/09/01 11:21:59;;;;;;;6.10;3.88;;;25.90;63.30;;;;;;5005247;28;20048;-77
2023/09/01 11:24:25;;;;;;;4.00;3.67;;;26.00;61.90;;;;;;5005094;28;20682;-77
2023/09/01 11:26:52;;;;;;;5.95;3.92;;;25.90;62.70;;;;;;5009283;28;20104;-78
2023/09/01 11:29:20;;;;;;;3.60;3.30;;;26.00;61.20;;;;;;5007993;28;20048;-78
2023/09/01 11:31:47;;;;;;;4.03;3.60;;;26.00;60.80;;;;;;5009284;28;20034;-77
2023/09/01 11:34:13;;;;;;;3.63;3.28;;;25.90;61.50;;;;;;5007162;28;20125;-77
2023/09/01 11:36:52;;;;;;;5.00;3.92;;;25.90;62.50;;;;;;5008867;28;20034;-78
2023/09/01 11:39:18;;;;;;;5.47;3.83;;;25.90;61.00;;;;;;5007249;28;20383;-77
2023/09/01 11:41:45;;;;;;;4.35;3.50;;;25.90;60.50;;;;;;5009152;28;20041;-77
2023/09/01 11:44:12;;;;;;;5.10;3.50;;;25.90;61.70;;;;;;5008074;28;20057;-78
2023/09/01 11:46:38;;;;;;;5.38;3.80;;;25.90;61.10;;;;;;5004759;28;20176;-77
2023/09/01 11:49:05;;;;;;;4.00;3.65;;;25.90;61.70;;;;;;5008499;28;20512;-77
2023/09/01 11:51:32;;;;;;;4.35;3.60;;;25.80;62.20;;;;;;5008785;28;20040;-77
2023/09/01 11:53:59;;;;;;;3.85;3.45;;;25.80;61.70;;;;;;5007947;28;20030;-78
2023/09/01 11:56:25;;;;;;;4.10;3.38;;;25.80;61.50;;;;;;5007555;28;21470;-77
2023/09/01 11:58:53;;;;;;;3.97;3.58;;;25.80;60.30;;;;;;5007995;28;20029;-78
2023/09/01 12:01:21;;;;;;;4.60;3.50;;;25.80;61.50;;;;;;5008353;28;20133;-78
2023/09/01 12:03:51;;;;;;;3.58;3.28;;;25.80;61.80;;;;;;5002907;28;20038;-76
2023/09/01 12:06:20;;;;;;;3.45;3.15;;;25.80;61.00;;;;;;5007478;28;20038;-76
2023/09/01 12:08:47;;;;;;;4.70;3.30;;;25.80;62.00;;;;;;5005013;28;20041;-77
2023/09/01 12:11:14;;;;;;;6.60;3.35;;;25.80;61.50;;;;;;5007122;28;20045;-78
2023/09/01 12:13:43;;;;;;;5.85;3.45;;;25.80;61.90;;;;;;5006930;28;20038;-78
2023/09/01 12:16:19;;;;;;;7.22;4.00;;;25.80;61.90;;;;;;5008030;28;20034;-76
2023/09/01 12:18:45;;;;;;;4.18;3.53;;;25.80;61.50;;;;;;5006713;28;20030;-75
2023/09/01 12:21:11;;;;;;;5.53;3.38;;;25.80;63.20;;;;;;5007948;28;20030;-76
2023/09/01 12:23:42;;;;;;;3.45;3.15;;;25.80;62.60;;;;;;5007056;28;20045;-76
2023/09/01 12:26:08;;;;;;;5.88;3.67;;;25.80;62.40;;;;;;5007542;28;20404;-75
2023/09/01 12:28:36;;;;;;;5.20;3.17;;;25.80;61.90;;;;;;5007113;28;20041;-76
2023/09/01 12:31:03;;;;;;;5.10;3.40;;;25.80;61.60;;;;;;5007762;28;20127;-75
2023/09/01 12:33:29;;;;;;;3.65;3.25;;;25.80;62.20;;;;;;5006297;28;20061;-75
2023/09/01 12:35:56;;;;;;;5.10;3.10;;;25.80;61.50;;;;;;5005202;28;20034;-80
2023/09/01 12:38:22;;;;;;;4.40;3.30;;;25.80;62.00;;;;;;5006853;28;20034;-74
2023/09/01 12:40:48;;;;;;;4.57;3.33;;;25.80;62.00;;;;;;5007927;28;20030;-74
2023/09/01 12:43:15;;;;;;;4.25;3.22;;;25.80;61.80;;;;;;5006166;28;20037;-77
2023/09/01 12:45:41;;;;;;;4.80;3.28;;;25.80;62.50;;;;;;5008541;28;20418;-72
2023/09/01 12:48:07;;;;;;;3.60;3.25;;;25.80;62.00;;;;;;5008010;28;20034;-73